Time;durP1;ratioP1;P1;durP2;ratioP2;P2;SDS_P1;SDS_P2;PMS_P1;PMS_P2;Temp;Humidity;BMP_temperature;BMP_pressure;BME280_temperature;BME280_humidity;BME280_pressure;Samples;Min_cycle;Max_cycle;Signal;HPM_P1;HPM_P2
2022/09/16 00:00:33;;;;;;;8.68;4.95;;;;;;;11.18;74.97;98010.50;5052102;28;20522;-71
2022/09/16 00:03:00;;;;;;;10.13;5.05;;;;;;;11.35;75.24;98009.97;5067370;28;20503;-72
2022/09/16 00:05:28;;;;;;;8.63;4.78;;;;;;;11.42;75.10;98001.72;5062645;28;20059;-72
2022/09/16 00:07:55;;;;;;;9.38;5.25;;;;;;;11.45;75.24;98000.97;5071768;28;20044;-71
2022/09/16 00:10:25;;;;;;;9.00;4.38;;;;;;;11.47;75.20;98004.19;5070823;28;20044;-71
2022/09/16 00:12:52;;;;;;;7.97;5.30;;;;;;;11.46;75.37;98001.78;5071966;28;20627;-73
2022/09/16 00:15:19;;;;;;;14.65;8.35;;;;;;;11.44;75.14;98004.94;5072053;28;20102;-71
2022/09/16 00:17:46;;;;;;;8.75;5.47;;;;;;;11.36;75.41;98002.41;5087087;28;20428;-72
2022/09/16 00:20:13;;;;;;;10.05;4.68;;;;;;;11.26;75.39;98003.06;5087354;28;20044;-71
2022/09/16 00:22:40;;;;;;;12.30;4.50;;;;;;;11.16;75.61;98004.47;5071848;28;20063;-72
2022/09/16 00:25:07;;;;;;;9.10;4.65;;;;;;;11.10;75.47;98005.97;5072992;28;20656;-71
2022/09/16 00:27:36;;;;;;;7.75;4.85;;;;;;;11.03;76.05;98005.88;5075381;28;20499;-71
2022/09/16 00:30:03;;;;;;;7.05;4.38;;;;;;;11.05;75.80;98014.66;5075433;28;20098;-72
2022/09/16 00:32:30;;;;;;;8.25;4.95;;;;;;;11.04;75.36;98013.84;5058696;28;20080;-70
2022/09/16 00:34:57;;;;;;;9.52;5.60;;;;;;;11.12;75.43;98017.53;5055326;28;20052;-71
2022/09/16 00:37:24;;;;;;;8.50;5.07;;;;;;;11.18;75.02;98020.81;5055149;28;20052;-71
2022/09/16 00:39:51;;;;;;;8.98;5.15;;;;;;;11.20;75.05;98013.72;5054937;28;20052;-71
2022/09/16 00:42:18;;;;;;;13.45;5.30;;;;;;;11.16;75.28;98018.41;5054884;28;20072;-70
2022/09/16 00:44:56;;;;;;;11.02;6.03;;;;;;;11.20;75.13;98008.16;5055197;28;20506;-70
2022/09/16 00:47:40;;;;;;;10.65;5.85;;;;;;;11.34;74.93;98016.69;5055085;28;20048;-70
2022/09/16 00:50:16;;;;;;;9.15;5.13;;;;;;;11.46;75.21;98012.91;5055166;28;20493;-69
2022/09/16 00:52:44;;;;;;;11.50;5.28;;;;;;;11.51;74.95;98010.59;5055100;28;20534;-70
2022/09/16 00:55:17;;;;;;;9.07;5.25;;;;;;;11.57;75.15;98003.53;5054657;28;20118;-70
2022/09/16 00:57:45;;;;;;;9.50;5.28;;;;;;;11.58;75.34;98009.91;5055017;28;20148;-69
2022/09/16 01:00:13;;;;;;;9.32;5.35;;;;;;;11.54;75.46;98004.28;5054546;28;20056;-69
2022/09/16 01:02:46;;;;;;;10.73;5.30;;;;;;;11.53;75.51;97993.50;5054641;28;20060;-69
2022/09/16 01:05:17;;;;;;;7.70;4.65;;;;;;;11.49;75.46;97992.66;5055186;28;20048;-70
2022/09/16 01:07:49;;;;;;;9.80;5.20;;;;;;;11.45;75.81;97995.38;5054705;28;20053;-70
2022/09/16 01:10:19;;;;;;;10.00;5.53;;;;;;;11.43;76.08;97997.75;5063561;28;20056;-69
2022/09/16 01:12:52;;;;;;;8.68;4.68;;;;;;;11.40;76.01;97981.78;5074528;28;20533;-70
2022/09/16 01:15:25;;;;;;;9.10;4.90;;;;;;;11.39;75.76;97980.19;5074393;28;20053;-70
2022/09/16 01:18:20;;;;;;;9.27;5.28;;;;;;;11.37;75.99;97988.09;5074150;28;20061;-70
2022/09/16 01:21:05;;;;;;;7.75;4.93;;;;;;;11.35;75.90;97989.66;5063084;28;20049;-70
2022/09/16 01:23:51;;;;;;;13.93;6.30;;;;;;;11.33;76.11;97992.00;5054368;28;20419;-70
2022/09/16 01:26:30;;;;;;;8.15;4.97;;;;;;;11.32;76.03;97990.41;5054903;28;20049;-69
2022/09/16 01:29:09;;;;;;;8.73;5.15;;;;;;;11.29;76.19;97986.41;5054045;28;20044;-68
2022/09/16 01:31:53;;;;;;;8.27;5.07;;;;;;;11.36;75.72;97989.28;5054288;28;20047;-69
2022/09/16 01:34:23;;;;;;;8.32;5.25;;;;;;;11.42;75.86;97990.56;5052600;28;20052;-68
2022/09/16 01:37:05;;;;;;;9.40;5.43;;;;;;;11.42;75.60;97982.22;5053863;28;20044;-68
2022/09/16 01:39:55;;;;;;;8.18;5.30;;;;;;;11.43;75.56;97986.59;5054076;28;20059;-69
2022/09/16 01:42:37;;;;;;;11.27;5.38;;;;;;;11.47;75.46;97989.44;5053109;28;20126;-68
2022/09/16 01:45:18;;;;;;;11.98;5.35;;;;;;;11.50;75.03;97992.28;5053729;28;20048;-68
2022/09/16 01:47:48;;;;;;;10.63;5.70;;;;;;;11.51;75.19;97993.88;5053696;28;20049;-70
2022/09/16 01:50:24;;;;;;;12.90;5.15;;;;;;;11.54;74.97;97987.56;5053990;28;20071;-70
2022/09/16 01:52:54;;;;;;;9.15;5.90;;;;;;;11.58;74.84;97988.44;5052412;28;20056;-71
2022/09/16 01:55:32;;;;;;;10.20;5.43;;;;;;;11.61;74.68;97982.09;5053769;28;20052;-70
2022/09/16 01:58:18;;;;;;;10.82;5.70;;;;;;;11.61;74.83;97979.31;5053683;28;20052;-71
2022/09/16 02:00:47;;;;;;;9.45;5.28;;;;;;;11.59;74.72;97987.25;5053702;28;20041;-71
2022/09/16 02:03:20;;;;;;;10.45;5.72;;;;;;;11.59;74.62;97984.47;5053518;28;20099;-69
2022/09/16 02:05:58;;;;;;;11.15;5.57;;;;;;;11.58;74.75;97982.88;5072557;28;20402;-70
2022/09/16 02:08:31;;;;;;;10.80;6.07;;;;;;;11.57;74.61;97972.09;5073504;28;20052;-70
2022/09/16 02:11:00;;;;;;;16.73;6.43;;;;;;;11.55;74.54;97977.22;5054578;28;20522;-69
2022/09/16 02:13:41;;;;;;;12.95;5.78;;;;;;;11.54;74.26;97981.19;5068684;28;20049;-69
2022/09/16 02:16:17;;;;;;;9.38;5.65;;;;;;;11.53;74.36;97979.59;5053476;28;20088;-70
2022/09/16 02:18:49;;;;;;;13.90;6.53;;;;;;;11.54;74.37;97982.00;5051703;28;20057;-70
2022/09/16 02:21:18;;;;;;;10.52;5.95;;;;;;;11.55;74.23;97983.63;5053324;28;20044;-70
2022/09/16 02:23:52;;;;;;;11.45;5.72;;;;;;;11.58;74.15;97982.06;5053228;28;20081;-69
2022/09/16 02:26:29;;;;;;;10.88;5.60;;;;;;;11.55;74.15;97977.22;5053524;28;20098;-69
2022/09/16 02:28:59;;;;;;;9.90;6.22;;;;;;;11.53;74.13;97979.59;5053009;28;20441;-69
2022/09/16 02:31:34;;;;;;;9.00;5.22;;;;;;;11.51;74.20;97971.59;5053098;28;20506;-69
2022/09/16 02:34:10;;;;;;;12.02;6.20;;;;;;;11.52;74.34;97976.00;5051707;28;20570;-69
2022/09/16 02:36:42;;;;;;;11.05;5.80;;;;;;;11.55;74.16;97972.47;5053295;28;20522;-70
2022/09/16 02:39:13;;;;;;;11.05;6.15;;;;;;;11.55;74.00;97971.66;5053283;28;20056;-69
2022/09/16 02:41:41;;;;;;;11.02;5.32;;;;;;;11.55;74.12;97969.69;5052800;28;20049;-69
2022/09/16 02:44:09;;;;;;;9.30;5.97;;;;;;;11.55;74.30;97978.06;5052614;28;20091;-69
2022/09/16 02:46:50;;;;;;;9.55;5.75;;;;;;;11.55;74.13;97960.53;5053199;28;20114;-69
2022/09/16 02:49:27;;;;;;;11.15;5.25;;;;;;;11.57;73.90;97960.97;5052632;28;20044;-71
2022/09/16 02:51:59;;;;;;;14.63;6.32;;;;;;;11.58;73.97;97965.34;5052875;28;20419;-71
2022/09/16 02:54:33;;;;;;;11.18;5.25;;;;;;;11.60;74.07;97968.56;5063594;28;20564;-68
2022/09/16 02:57:00;;;;;;;9.30;5.10;;;;;;;11.59;73.83;97967.75;5072736;28;20070;-68
2022/09/16 02:59:27;;;;;;;8.38;5.55;;;;;;;11.63;73.94;97963.06;5061100;28;20049;-68
2022/09/16 03:01:54;;;;;;;10.40;5.60;;;;;;;11.61;73.94;97953.44;5052741;28;20480;-68
2022/09/16 03:04:21;;;;;;;9.82;5.72;;;;;;;11.55;73.87;97961.34;5052644;28;20053;-68
2022/09/16 03:06:48;;;;;;;10.65;5.57;;;;;;;11.55;73.87;97950.19;5052549;28;20067;-68
2022/09/16 03:09:22;;;;;;;13.40;5.88;;;;;;;11.59;73.73;97948.25;5051085;28;20040;-68
2022/09/16 03:12:23;;;;;;;9.32;5.82;;;;;;;11.58;73.50;97945.84;5051149;28;20044;-69
2022/09/16 03:14:58;;;;;;;11.18;5.72;;;;;;;11.54;73.67;97958.91;5052253;28;20515;-69
2022/09/16 03:17:40;;;;;;;8.55;5.65;;;;;;;11.57;73.57;97949.81;5052359;28;20053;-71
2022/09/16 03:20:16;;;;;;;11.02;6.28;;;;;;;11.58;73.56;97952.22;5055792;28;20454;-70
2022/09/16 03:23:19;;;;;;;10.10;5.40;;;;;;;11.54;73.49;97948.56;5072477;28;20141;-69
2022/09/16 03:25:46;;;;;;;8.88;5.50;;;;;;;11.51;73.44;97945.72;5072530;28;20045;-70
2022/09/16 03:28:27;;;;;;;11.13;5.93;;;;;;;11.46;73.30;97955.22;5072297;28;20056;-69
2022/09/16 03:31:14;;;;;;;10.02;5.05;;;;;;;11.45;73.54;97955.59;5069109;28;20045;-70
2022/09/16 03:33:55;;;;;;;18.30;5.75;;;;;;;11.43;73.49;97958.75;5052065;28;20049;-70
2022/09/16 03:36:29;;;;;;;10.98;6.03;;;;;;;11.43;73.69;97963.53;5052362;28;20053;-70
2022/09/16 03:39:09;;;;;;;9.55;5.60;;;;;;;11.38;73.62;97956.31;5110884;27;20380;-69
2022/09/16 03:41:38;;;;;;;9.50;5.15;;;;;;;11.46;73.45;97960.00;5110363;28;20185;-70
2022/09/16 03:44:04;;;;;;;11.82;5.90;;;;;;;11.52;73.30;97961.28;5110491;28;20047;-69
2022/09/16 03:46:31;;;;;;;11.10;5.93;;;;;;;11.57;73.05;97953.38;5110652;28;20048;-70
2022/09/16 03:48:59;;;;;;;11.93;5.35;;;;;;;11.62;73.17;97953.09;5110422;28;20105;-70
2022/09/16 03:51:26;;;;;;;10.18;5.35;;;;;;;11.64;72.88;97956.31;5110419;28;20105;-68
2022/09/16 03:53:53;;;;;;;8.80;4.85;;;;;;;11.68;73.04;97964.69;5110061;28;20093;-70
2022/09/16 03:56:22;;;;;;;8.52;4.97;;;;;;;11.72;72.83;97963.56;5110557;28;20134;-69
2022/09/16 03:58:50;;;;;;;10.95;5.40;;;;;;;11.76;72.99;97967.22;5109843;28;20143;-69
2022/09/16 04:01:17;;;;;;;10.63;5.32;;;;;;;11.80;73.02;97962.50;5110368;28;20113;-70
2022/09/16 04:03:44;;;;;;;9.70;5.20;;;;;;;11.82;72.72;97968.50;5110165;28;20043;-69
2022/09/16 04:06:11;;;;;;;8.60;4.80;;;;;;;11.85;72.92;97966.91;5110069;28;20048;-69
2022/09/16 04:08:38;;;;;;;12.95;5.47;;;;;;;11.89;73.03;97967.75;5109932;28;20047;-69
2022/09/16 04:11:06;;;;;;;9.15;5.22;;;;;;;11.93;72.67;97977.75;5093048;28;20044;-70
2022/09/16 04:13:34;;;;;;;14.82;5.18;;;;;;;11.95;72.97;97969.84;5089737;28;20105;-70
2022/09/16 04:16:03;;;;;;;12.00;5.57;;;;;;;12.01;72.91;97971.09;5089239;28;20457;-69
2022/09/16 04:18:31;;;;;;;7.70;4.65;;;;;;;12.02;73.08;97964.34;5089368;28;20059;-69
2022/09/16 04:21:00;;;;;;;10.30;5.55;;;;;;;12.04;72.91;97956.41;5089155;28;20410;-70
2022/09/16 04:23:29;;;;;;;8.53;5.13;;;;;;;12.04;73.07;97961.97;5088238;28;20055;-70
2022/09/16 04:25:58;;;;;;;8.50;5.03;;;;;;;12.09;73.14;97963.63;5089400;28;20139;-69
2022/09/16 04:28:26;;;;;;;9.63;5.47;;;;;;;12.09;72.87;97961.66;5089032;28;20101;-70
2022/09/16 04:30:53;;;;;;;10.30;6.00;;;;;;;12.16;72.75;97964.50;5089157;28;20118;-71
2022/09/16 04:33:20;;;;;;;11.38;5.85;;;;;;;12.22;72.82;97962.97;5089728;28;20048;-70
2022/09/16 04:35:47;;;;;;;7.65;5.00;;;;;;;12.24;73.16;97962.59;5089143;28;20044;-70
2022/09/16 04:38:14;;;;;;;8.80;5.35;;;;;;;12.21;73.09;97961.38;5088528;28;20507;-69
2022/09/16 04:40:40;;;;;;;9.63;5.13;;;;;;;12.26;72.98;97958.25;5087876;28;20056;-69
2022/09/16 04:43:08;;;;;;;11.35;5.85;;;;;;;12.28;73.43;97955.06;5087745;28;20380;-70
2022/09/16 04:45:35;;;;;;;8.00;5.43;;;;;;;12.31;73.17;97949.53;5087694;28;20048;-70
2022/09/16 04:48:02;;;;;;;10.60;5.05;;;;;;;12.32;73.33;97944.78;5089016;28;20402;-71
2022/09/16 04:50:28;;;;;;;15.48;5.50;;;;;;;12.35;73.30;97942.00;5075475;28;20052;-71
2022/09/16 04:52:55;;;;;;;12.02;5.88;;;;;;;12.35;73.17;97947.56;5075233;28;20174;-70
2022/09/16 04:55:24;;;;;;;10.10;5.95;;;;;;;12.29;73.06;97951.91;5088269;28;20040;-70
2022/09/16 04:57:51;;;;;;;8.65;4.35;;;;;;;12.26;73.17;97947.09;5095166;28;20044;-69
2022/09/16 05:00:18;;;;;;;8.95;6.22;;;;;;;12.28;72.98;97939.16;5079950;28;20044;-69
2022/09/16 05:02:45;;;;;;;9.15;5.75;;;;;;;12.29;73.01;97951.13;5075012;28;20048;-68
2022/09/16 05:05:12;;;;;;;9.27;5.35;;;;;;;12.28;73.34;97950.31;5075235;28;20131;-67
2022/09/16 05:07:39;;;;;;;8.77;5.70;;;;;;;12.29;73.14;97946.31;5074831;28;20507;-66
2022/09/16 05:10:06;;;;;;;11.75;6.03;;;;;;;12.33;73.10;97938.81;5075137;28;20048;-66
2022/09/16 05:12:33;;;;;;;13.07;5.85;;;;;;;12.35;73.08;97935.66;5074858;28;20600;-67
2022/09/16 05:15:00;;;;;;;12.95;5.85;;;;;;;12.31;73.14;97932.81;5074940;28;20044;-67
2022/09/16 05:17:30;;;;;;;13.85;6.30;;;;;;;12.30;73.26;97936.78;5073599;28;20407;-68
2022/09/16 05:20:16;;;;;;;12.63;5.88;;;;;;;12.32;73.22;97928.81;5074766;28;20060;-67
2022/09/16 05:22:43;;;;;;;10.88;5.82;;;;;;;12.38;73.24;97927.28;5074326;28;20075;-67
2022/09/16 05:25:10;;;;;;;10.82;6.07;;;;;;;12.43;73.09;97929.75;5074714;28;20237;-66
2022/09/16 05:27:37;;;;;;;10.35;5.45;;;;;;;12.43;72.97;97924.16;5074545;28;20049;-66
2022/09/16 05:30:04;;;;;;;12.65;5.95;;;;;;;12.41;73.11;97923.75;5074685;28;20094;-68
2022/09/16 05:32:33;;;;;;;10.95;6.13;;;;;;;12.41;72.91;97914.59;5074277;28;20519;-66
2022/09/16 05:35:00;;;;;;;11.07;6.85;;;;;;;12.41;73.35;97926.53;5074460;28;20044;-68
2022/09/16 05:37:28;;;;;;;12.48;5.82;;;;;;;12.45;73.06;97924.59;5074103;28;20147;-68
2022/09/16 05:39:55;;;;;;;15.85;6.75;;;;;;;12.50;73.09;97924.22;5074475;28;20052;-67
2022/09/16 05:42:22;;;;;;;13.45;6.57;;;;;;;12.57;72.60;97904.78;5074348;28;20063;-67
2022/09/16 05:44:49;;;;;;;9.60;5.30;;;;;;;12.65;72.46;97908.44;5074644;28;20060;-68
2022/09/16 05:47:16;;;;;;;13.05;5.55;;;;;;;12.74;72.13;97906.91;5073960;28;20041;-67
2022/09/16 05:49:43;;;;;;;10.73;5.90;;;;;;;12.90;72.10;97910.22;5074042;28;20056;-67
2022/09/16 05:52:10;;;;;;;19.63;6.75;;;;;;;13.03;72.01;97909.94;5074065;28;20518;-67
2022/09/16 05:54:37;;;;;;;10.63;6.03;;;;;;;13.10;71.45;97908.00;5073757;28;20044;-66
2022/09/16 05:57:04;;;;;;;21.27;6.40;;;;;;;13.03;71.53;97910.75;5073866;28;20552;-67
2022/09/16 05:59:32;;;;;;;10.82;5.90;;;;;;;13.02;71.84;97909.13;5073979;28;20484;-66
2022/09/16 06:01:59;;;;;;;10.20;6.43;;;;;;;13.10;71.78;97915.56;5073213;28;20045;-67
2022/09/16 06:04:28;;;;;;;14.43;6.63;;;;;;;13.08;71.50;97909.59;5084087;28;20052;-67
2022/09/16 06:06:54;;;;;;;16.50;7.10;;;;;;;13.17;71.29;97908.03;5093983;28;20052;-66
2022/09/16 06:09:23;;;;;;;13.90;7.00;;;;;;;13.26;70.82;97907.72;5093772;28;20113;-66
2022/09/16 06:11:52;;;;;;;30.50;7.50;;;;;;;13.27;71.38;97903.72;5093638;28;20043;-68
2022/09/16 06:14:27;;;;;;;12.60;6.35;;;;;;;13.31;71.31;97905.34;5093984;28;20517;-67
2022/09/16 06:16:54;;;;;;;14.00;6.47;;;;;;;13.29;71.18;97904.16;5093785;28;20047;-67
2022/09/16 06:19:21;;;;;;;18.98;6.53;;;;;;;13.26;71.03;97899.34;5093596;28;20130;-68
2022/09/16 06:21:48;;;;;;;18.20;7.28;;;;;;;13.24;71.16;97907.28;5078472;28;20048;-68
2022/09/16 06:24:16;;;;;;;24.85;7.55;;;;;;;13.23;71.47;97900.13;5073358;28;20064;-67
2022/09/16 06:26:44;;;;;;;16.88;7.15;;;;;;;13.24;71.06;97907.28;5073210;28;20048;-67
2022/09/16 06:29:12;;;;;;;17.50;6.70;;;;;;;13.14;71.48;97896.88;5073484;28;20052;-67
2022/09/16 06:31:40;;;;;;;12.10;6.75;;;;;;;13.18;71.07;97895.69;5072995;28;20052;-68
2022/09/16 06:34:10;;;;;;;28.63;8.38;;;;;;;13.28;70.87;97891.34;5073530;28;20104;-67
2022/09/16 06:36:38;;;;;;;20.45;8.07;;;;;;;13.43;70.52;97881.84;5071861;28;20049;-67
2022/09/16 06:39:10;;;;;;;19.27;9.20;;;;;;;13.65;69.81;97884.34;5072700;28;20059;-66
2022/09/16 06:41:37;;;;;;;18.80;7.57;;;;;;;13.94;69.05;97880.47;5073176;28;20063;-66
2022/09/16 06:44:04;;;;;;;14.52;7.65;;;;;;;14.23;68.39;97878.53;5076676;28;20286;-66
2022/09/16 06:46:34;;;;;;;18.25;7.40;;;;;;;14.53;67.91;97887.41;5086092;28;20082;-67
2022/09/16 06:49:00;;;;;;;16.88;7.32;;;;;;;14.87;67.03;97887.81;5079620;28;20052;-67
2022/09/16 06:51:33;;;;;;;16.48;7.45;;;;;;;15.01;66.19;97883.00;5087486;28;20102;-66
2022/09/16 06:54:03;;;;;;;15.85;8.32;;;;;;;15.15;66.29;97880.19;5085972;28;20058;-66
2022/09/16 06:56:30;;;;;;;17.50;7.15;;;;;;;15.28;65.69;97883.38;5088968;28;20048;-66
2022/09/16 06:58:57;;;;;;;24.83;8.30;;;;;;;15.29;65.59;97871.75;5089524;28;20444;-67
2022/09/16 07:01:27;;;;;;;15.57;7.70;;;;;;;15.22;65.71;97882.97;5091779;28;20104;-67
2022/09/16 07:03:57;;;;;;;19.05;8.10;;;;;;;15.05;66.06;97877.41;5091986;28;20456;-66
2022/09/16 07:06:28;;;;;;;13.60;6.73;;;;;;;15.00;66.08;97887.00;5093016;28;20047;-66
2022/09/16 07:09:15;;;;;;;15.52;7.78;;;;;;;15.06;66.12;97876.19;5091835;28;20047;-66
2022/09/16 07:11:42;;;;;;;18.42;7.38;;;;;;;15.57;64.95;97877.28;5078028;28;20407;-67
2022/09/16 07:14:09;;;;;;;20.30;8.55;;;;;;;16.25;63.12;97873.75;5093646;28;20509;-66
2022/09/16 07:16:36;;;;;;;20.45;8.35;;;;;;;16.83;61.77;97874.97;5079216;28;20182;-68
2022/09/16 07:19:03;;;;;;;19.88;8.07;;;;;;;17.20;60.64;97872.22;5072493;28;20541;-66
2022/09/16 07:21:30;;;;;;;14.45;7.40;;;;;;;17.56;59.81;97867.84;5071815;28;20113;-67
2022/09/16 07:24:01;;;;;;;12.45;6.53;;;;;;;17.61;59.85;97876.63;5077188;28;20102;-66
2022/09/16 07:26:33;;;;;;;19.30;6.30;;;;;;;17.27;60.36;97867.34;5082140;28;20463;-65
2022/09/16 07:29:02;;;;;;;11.70;6.82;;;;;;;16.88;61.35;97857.69;5091466;28;20044;-66
2022/09/16 07:31:37;;;;;;;14.32;7.65;;;;;;;16.46;62.27;97855.22;5087559;28;20043;-66
2022/09/16 07:34:06;;;;;;;16.88;7.35;;;;;;;16.12;63.32;97849.41;5092664;28;20116;-66
2022/09/16 07:36:39;;;;;;;13.57;7.85;;;;;;;16.06;63.62;97854.66;5092548;28;20511;-66
2022/09/16 07:39:07;;;;;;;21.13;8.18;;;;;;;16.02;63.76;97839.81;5092127;28;20055;-67
2022/09/16 07:41:39;;;;;;;20.80;7.40;;;;;;;16.13;63.61;97848.19;5092432;28;20059;-67
2022/09/16 07:44:07;;;;;;;13.60;7.05;;;;;;;16.24;63.37;97837.69;5092255;28;20510;-67
2022/09/16 07:46:35;;;;;;;18.15;7.78;;;;;;;16.51;62.62;97835.09;5090372;28;20044;-67
2022/09/16 07:49:04;;;;;;;16.73;7.90;;;;;;;16.75;62.04;97828.53;5091857;28;20070;-67
2022/09/16 07:51:32;;;;;;;13.15;7.82;;;;;;;16.91;61.54;97837.19;5091511;28;20150;-67
2022/09/16 07:54:04;;;;;;;15.98;6.80;;;;;;;17.14;60.97;97828.94;5077379;28;20080;-65
2022/09/16 07:56:33;;;;;;;;;;;;;;;17.07;61.33;97834.59;5083107;28;20048;-66
2022/09/16 07:59:02;;;;;;;15.25;6.90;;;;;;;16.94;61.73;97830.75;5082528;28;19969;-66
2022/09/16 08:01:30;;;;;;;12.38;6.85;;;;;;;16.80;61.96;97823.25;5088793;28;20137;-65
2022/09/16 08:03:58;;;;;;;10.93;6.22;;;;;;;16.82;61.99;97825.63;5086153;28;20514;-67
2022/09/16 08:06:28;;;;;;;16.13;7.57;;;;;;;17.03;61.46;97822.63;5087929;28;20072;-65
2022/09/16 08:08:58;;;;;;;17.77;7.38;;;;;;;17.55;60.12;97813.63;5089140;28;20044;-66
2022/09/16 08:11:46;;;;;;;17.20;7.10;;;;;;;18.17;58.76;97813.97;5075471;28;20094;-66
2022/09/16 08:14:13;;;;;;;17.98;6.88;;;;;;;18.61;57.49;97806.47;5078494;28;20444;-68
2022/09/16 08:16:40;;;;;;;11.20;5.93;;;;;;;18.80;56.60;97800.91;5084244;28;20043;-70
2022/09/16 08:19:08;;;;;;;16.50;7.47;;;;;;;18.76;56.54;97803.00;5088156;28;20131;-66
2022/09/16 08:21:35;;;;;;;13.20;6.95;;;;;;;18.51;57.27;97805.44;5091296;28;20055;-66
2022/09/16 08:24:02;;;;;;;10.93;6.60;;;;;;;18.44;57.57;97799.91;5092800;28;20075;-66
2022/09/16 08:26:28;;;;;;;12.40;6.68;;;;;;;18.41;57.10;97800.75;5096151;28;20068;-66
2022/09/16 08:28:55;;;;;;;11.82;6.25;;;;;;;18.61;56.48;97800.84;5095906;28;20047;-67
2022/09/16 08:31:36;;;;;;;13.85;6.43;;;;;;;20.18;53.03;97790.50;5086947;28;20044;-67
2022/09/16 08:34:04;;;;;;;8.75;6.00;;;;;;;21.01;50.53;97781.19;5085947;28;20077;-66
2022/09/16 08:36:32;;;;;;;14.02;5.78;;;;;;;20.92;50.19;97781.78;5081389;28;20138;-66
2022/09/16 08:39:00;;;;;;;13.43;5.40;;;;;;;21.03;50.37;97788.00;5095110;28;20395;-66
2022/09/16 08:41:48;;;;;;;13.90;6.88;;;;;;;21.24;49.17;97792.28;5089745;28;20058;-65
2022/09/16 08:44:39;;;;;;;15.10;6.65;;;;;;;20.99;48.56;97792.16;5082770;28;20395;-66
2022/09/16 08:47:21;;;;;;;13.48;5.30;;;;;;;20.26;49.48;97780.63;5087691;28;20047;-66
2022/09/16 08:49:50;;;;;;;10.35;5.20;;;;;;;19.82;50.58;97782.00;5095685;28;20036;-66
2022/09/16 08:52:34;;;;;;;8.00;5.47;;;;;;;19.39;51.50;97786.97;5095349;28;20047;-66
2022/09/16 08:55:10;;;;;;;10.32;5.53;;;;;;;19.43;51.78;97790.50;5087514;28;20396;-67
2022/09/16 08:58:17;;;;;;;9.68;5.68;;;;;;;19.79;51.08;97794.19;5080345;28;20075;-65
2022/09/16 09:00:49;;;;;;;8.13;4.88;;;;;;;19.57;51.53;97787.41;5072819;28;20039;-69
2022/09/16 09:03:38;;;;;;;8.50;5.70;;;;;;;18.94;53.01;97789.41;5077250;28;20418;-67
2022/09/16 09:06:22;;;;;;;13.73;6.60;;;;;;;18.58;54.11;97791.25;5078690;28;20094;-68
2022/09/16 09:09:04;;;;;;;14.60;5.95;;;;;;;18.15;55.11;97793.13;5085597;28;20102;-72
2022/09/16 09:11:44;;;;;;;14.93;6.38;;;;;;;17.82;55.88;97786.34;5078449;28;20490;-68
2022/09/16 09:14:37;;;;;;;;;;;;;;;17.55;56.49;97793.94;5074824;28;20503;-69
2022/09/16 09:17:45;;;;;;;11.55;6.05;;;;;;;17.49;56.78;97794.81;5062611;28;20282;-68
2022/09/16 09:20:30;;;;;;;19.45;7.20;;;;;;;17.38;57.18;97797.72;5066934;28;20070;-68
2022/09/16 09:23:20;;;;;;;11.45;7.05;;;;;;;17.27;57.52;97785.03;5081012;28;20515;-69
2022/09/16 09:25:47;;;;;;;9.60;6.20;;;;;;;17.33;57.56;97786.16;5077746;28;20075;-72
2022/09/16 09:28:26;;;;;;;12.25;6.88;;;;;;;17.49;57.32;97777.94;5074806;28;20048;-71
2022/09/16 09:31:13;;;;;;;15.18;7.60;;;;;;;18.10;56.13;97768.25;5075495;28;20063;-72
2022/09/16 09:34:16;;;;;;;10.95;6.43;;;;;;;18.74;54.75;97777.28;5085702;28;20040;-66
2022/09/16 09:37:02;;;;;;;14.27;6.82;;;;;;;18.98;54.07;97767.56;5084055;28;20044;-69
2022/09/16 09:39:29;;;;;;;11.82;6.40;;;;;;;19.11;53.98;97765.72;5078322;28;20040;-68
2022/09/16 09:42:15;;;;;;;9.82;6.70;;;;;;;19.38;53.52;97748.69;5088776;28;20114;-69
2022/09/16 09:45:07;;;;;;;12.60;6.85;;;;;;;19.29;53.47;97752.09;5079838;28;20068;-68
2022/09/16 09:48:09;;;;;;;18.50;6.93;;;;;;;19.50;53.21;97765.78;5076907;28;20534;-67
2022/09/16 09:50:43;;;;;;;9.60;5.60;;;;;;;19.34;53.36;97759.25;5080267;28;20124;-68
2022/09/16 09:53:31;;;;;;;13.00;5.85;;;;;;;18.83;54.33;97760.59;5074999;28;20079;-64
2022/09/16 09:56:23;;;;;;;10.23;5.57;;;;;;;18.51;54.65;97766.03;5080558;28;20058;-66
2022/09/16 09:59:01;;;;;;;11.27;6.72;;;;;;;18.15;55.47;97753.72;5072971;28;20052;-68
2022/09/16 10:01:28;;;;;;;10.38;5.45;;;;;;;18.03;55.72;97751.50;5077459;28;20043;-68
2022/09/16 10:03:57;;;;;;;12.23;5.32;;;;;;;17.87;55.94;97765.38;5071508;28;20127;-67
2022/09/16 10:06:28;;;;;;;10.93;5.00;;;;;;;17.77;56.21;97760.72;5077562;28;20040;-66
2022/09/16 10:08:57;;;;;;;7.38;4.93;;;;;;;17.68;56.32;97758.41;5072072;28;20094;-66
2022/09/16 10:11:27;;;;;;;9.63;5.35;;;;;;;17.64;56.40;97763.28;5072648;28;20055;-65
2022/09/16 10:13:57;;;;;;;9.05;5.70;;;;;;;17.60;56.21;97768.16;5090580;28;20080;-64
2022/09/16 10:16:29;;;;;;;8.27;4.53;;;;;;;17.53;56.09;97757.00;5087097;28;20060;-66
2022/09/16 10:19:05;;;;;;;9.25;4.75;;;;;;;17.43;56.31;97748.69;5077984;28;20049;-66
2022/09/16 10:21:48;;;;;;;6.85;4.32;;;;;;;17.48;56.03;97731.38;5080125;28;20061;-66
2022/09/16 10:24:29;;;;;;;8.68;4.65;;;;;;;17.72;55.37;97727.44;5073446;28;20049;-67
2022/09/16 10:26:58;;;;;;;8.20;5.43;;;;;;;17.88;55.20;97734.00;5081771;28;20056;-67
2022/09/16 10:29:25;;;;;;;12.90;4.88;;;;;;;18.01;54.86;97742.66;5089711;28;20047;-68
2022/09/16 10:31:53;;;;;;;10.27;4.68;;;;;;;18.02;54.62;97733.81;5083816;28;20400;-68
2022/09/16 10:34:37;;;;;;;11.63;5.72;;;;;;;18.08;54.28;97731.28;5078837;28;20060;-66
2022/09/16 10:37:16;;;;;;;17.65;8.88;;;;;;;18.13;54.27;97733.63;5080866;28;20055;-67
2022/09/16 10:39:55;;;;;;;9.40;4.50;;;;;;;18.13;54.30;97722.38;5072971;28;20063;-66
2022/09/16 10:42:26;;;;;;;9.98;5.15;;;;;;;18.02;54.59;97727.38;5073810;28;20052;-66
2022/09/16 10:45:13;;;;;;;8.13;4.72;;;;;;;17.78;55.08;97717.28;5086498;28;20036;-66
2022/09/16 10:47:47;;;;;;;8.15;4.63;;;;;;;17.55;55.81;97717.22;5079446;28;20056;-65
2022/09/16 10:50:17;;;;;;;8.32;4.60;;;;;;;17.40;56.21;97719.41;5084343;28;20407;-65
2022/09/16 10:52:46;;;;;;;9.35;4.88;;;;;;;17.32;56.57;97717.13;5081938;28;20075;-65
2022/09/16 10:55:31;;;;;;;17.20;5.30;;;;;;;17.22;56.95;97718.03;5074780;28;20036;-64
2022/09/16 10:58:16;;;;;;;12.50;4.78;;;;;;;17.09;57.42;97725.44;5086575;28;20047;-67
2022/09/16 11:00:55;;;;;;;11.75;5.03;;;;;;;16.98;57.79;97707.88;5075800;28;20100;-68
2022/09/16 11:03:40;;;;;;;20.55;5.20;;;;;;;16.92;58.26;97703.94;5073323;28;20048;-67
2022/09/16 11:06:18;;;;;;;8.73;4.88;;;;;;;16.81;58.26;97711.72;5085567;28;20044;-69
2022/09/16 11:08:54;;;;;;;9.43;5.72;;;;;;;16.74;58.51;97714.59;5073218;28;20059;-69
2022/09/16 11:11:54;;;;;;;14.38;5.50;;;;;;;16.73;58.64;97698.97;5080880;28;20048;-69
2022/09/16 11:14:30;;;;;;;10.50;5.50;;;;;;;16.73;58.89;97696.16;5074856;28;20052;-66
2022/09/16 11:17:10;;;;;;;6.85;3.90;;;;;;;16.76;58.91;97684.09;5081755;28;20418;-65
2022/09/16 11:20:20;;;;;;;8.93;3.85;;;;;;;16.72;58.82;97683.34;5077738;28;20047;-66
2022/09/16 11:23:13;;;;;;;9.77;4.60;;;;;;;16.68;58.80;97688.16;5077668;28;20054;-65
2022/09/16 11:25:48;;;;;;;12.38;4.45;;;;;;;16.64;58.84;97684.63;5077977;28;20044;-69
2022/09/16 11:28:36;;;;;;;7.40;4.05;;;;;;;16.63;58.97;97681.00;5071338;28;20392;-69
2022/09/16 11:31:06;;;;;;;12.15;5.00;;;;;;;16.61;58.80;97677.81;5072168;28;20510;-62
2022/09/16 11:33:47;;;;;;;8.23;4.00;;;;;;;16.58;59.00;97677.88;5069649;28;20048;-60
2022/09/16 11:36:31;;;;;;;7.60;4.10;;;;;;;16.59;58.72;97668.22;5076539;28;20767;-59
2022/09/16 11:39:22;;;;;;;8.35;4.43;;;;;;;16.58;58.71;97672.25;5076081;28;20061;-58
2022/09/16 11:42:26;;;;;;;9.20;4.40;;;;;;;16.52;58.56;97668.31;5060416;28;20074;-57
2022/09/16 11:45:07;;;;;;;11.30;4.68;;;;;;;16.52;58.74;97657.06;5076633;28;20526;-61
2022/09/16 11:47:46;;;;;;;8.00;3.80;;;;;;;16.51;58.96;97661.06;5079395;28;20055;-60
2022/09/16 11:50:44;;;;;;;10.30;4.30;;;;;;;16.56;58.74;97658.63;5078473;28;20044;-59
2022/09/16 11:53:39;;;;;;;13.65;4.20;;;;;;;16.56;59.08;97653.00;5071874;28;20491;-60
2022/09/16 11:56:17;;;;;;;11.27;4.47;;;;;;;16.58;59.20;97649.78;5085622;28;20051;-60
2022/09/16 11:59:13;;;;;;;10.00;5.38;;;;;;;16.66;59.29;97645.66;5092659;28;20044;-61